Latest Coastal Weather Observations for Hopetoun North

IDW60701

Issued at 6:05 am WST Monday 22 September 2014 (issued every 10 minutes, with the page automatically refreshed every 10 minutes)

About coastal observations | Map of coastal stations | Coastal observations for WA | Marine services | Other Formats
Station Details ID: 009961 Name: HOPETOUN NORTH Lat: -33.93 Lon: 120.13 Height: 26.0 m
Data from the previous 72 hours. | See also: Recent months at Hopetoun North
Date/Time
WST
Temp

°C
Wind Pressure Rain
since 9am
mm
Weather Cloud Vis
km
Sea
Height
m
Swell
Dir
 
Speed
knots
Gust
knots
hPa Trend Height
m
Period
s
Dir
22/06:00am 10.9 S 22 33 1012.4 - 13.0 - - - - - - -
22/05:37am 10.9 S 21 32 1012.2 - 13.0 - - - - - - -
22/05:30am 10.9 S 23 32 1011.9 - 13.0 - - - - - - -
22/05:06am 10.1 S 21 32 1011.5 - 13.0 - - - - - - -
22/05:00am 10.0 S 23 31 1011.4 - 13.0 - - - - - - -
22/04:36am 9.9 S 20 33 1010.5 - 13.0 - - - - - - -
22/04:30am 9.9 S 19 26 1010.8 - 13.0 - - - - - - -
22/04:00am 9.6 S 22 33 1010.7 - 12.4 - - - - - - -
22/03:56am 10.2 S 20 31 1010.6 - 12.0 - - - - - - -
22/03:30am 10.3 SSW 19 28 1010.1 - 11.8 - - - - - - -
22/03:27am 10.0 SSW 18 28 1010.1 - 11.8 - - - - - - -
22/03:00am 9.8 SSW 18 25 1009.6 - 11.4 Rain - - - - - -
22/02:30am 10.3 SSW 19 29 1009.5 - 11.0 - - - - - - -
22/02:00am 10.3 SSW 19 26 1009.1 - 10.2 - - - - - - -
22/01:30am 10.6 S 18 25 1009.6 - 9.4 - - - - - - -
22/01:00am 10.5 SSW 19 27 1009.4 - 8.6 - - - - - - -
22/12:30am 10.6 SSW 19 25 1008.8 - 7.0 - - - - - - -
22/12:00am 10.8 SSW 18 25 1009.6 - 5.0 Rain - - - - - -
 
Date/Time
WST
Temp

°C
Wind Pressure Rain
since 9am
mm
Weather Cloud Vis
km
Sea
Height
m
Swell
Dir
 
Speed
knots
Gust
knots
hPa Trend Height
m
Period
s
Dir
21/11:30pm 10.8 SW 19 28 1007.8 - 3.4 - - - - - - -
21/11:28pm 10.9 SW 17 28 1008.0 - 3.2 - - - - - - -
21/11:25pm 11.0 SW 15 23 1008.4 - 3.0 - - - - - - -
21/11:00pm 10.3 W 8 11 1009.6 - 2.2 - - - - - - -
21/10:30pm 10.4 WNW 8 12 1010.4 - 1.4 - - - - - - -
21/10:00pm 10.3 W 5 8 1009.6 - 1.0 - - - - - - -
21/09:30pm 10.8 W 5 9 1009.8 - 0.6 - - - - - - -
21/09:00pm 11.5 W 9 13 1010.8 - 0.0 - - - - - - -
21/08:30pm 13.5 W 9 14 1009.8 - 0.0 - - - - - - -
21/08:00pm 13.8 WSW 5 7 1009.3 - 0.0 - - - - - - -
21/07:30pm 13.9 W 10 14 1009.1 - 0.0 - - - - - - -
21/07:00pm 14.4 WSW 12 17 1008.9 - 0.0 - - - - - - -
21/06:30pm 14.5 WSW 15 20 1008.3 - 0.0 - - - - - - -
21/06:00pm 15.5 WSW 17 28 1007.3 - 0.0 - - - - - - -
21/05:57pm 15.4 WSW 17 28 1007.1 - 0.0 - - - - - - -
21/05:30pm 15.8 WSW 22 32 1005.7 - 0.0 - - - - - - -
21/05:17pm 16.6 WSW 23 33 1005.0 - 0.0 - - - - - - -
21/05:00pm 16.9 WSW 22 32 1004.5 - 0.0 - - - - - - -
21/04:30pm 18.2 SW 24 36 1002.6 - 0.0 - - - - - - -
21/04:15pm 21.9 SW 30 41 1001.6 - 0.0 - - - - - - -
21/04:13pm 26.8 WNW 30 41 1001.0 - 0.0 - - - - - - -
21/04:00pm 30.2 N 24 38 999.6 - 0.0 - - - - - - -
21/03:38pm 29.8 NNW 22 33 999.3 - 0.0 - - - - - - -
21/03:33pm 30.4 N 32 45 999.0 - 0.0 - - - - - - -
21/03:30pm 30.5 N 34 43 999.0 - 0.0 - - - - - - -
21/03:29pm 30.6 N 35 43 999.0 - 0.0 - - - - - - -
21/03:00pm 29.6 N 24 40 999.4 - 0.0 - - - - - - -
21/02:31pm 29.7 N 27 38 999.7 - 0.0 - - - - - - -
21/02:30pm 29.8 N 28 38 999.7 - 0.0 - - - - - - -
21/02:00pm 30.2 NNW 28 38 999.7 - 0.0 - - - - - - -
21/01:46pm 30.6 N 30 46 999.9 - 0.0 - - - - - - -
21/01:30pm 30.7 NNW 24 35 1000.2 - 0.0 - - - - - - -
21/01:00pm 30.3 N 28 42 1000.9 - 0.0 - - - - - - -
21/12:30pm 29.8 N 26 42 1001.5 - 0.0 - - - - - - -
21/12:00pm 29.7 N 21 34 1002.7 - 0.0 - - - - - - -
21/11:30am 31.6 N 16 27 1003.6 - 0.0 - - - - - - -
21/11:29am 31.7 N 15 27 1003.5 - 0.0 - - - - - - -
21/11:00am 27.8 N 18 25 1004.5 - 0.0 - - - - - - -
21/10:30am 27.4 N 16 24 1005.3 - 0.0 - - - - - - -
21/10:00am 26.9 N 14 21 1006.0 - 0.0 - - - - - - -
21/09:30am 25.8 N 10 16 1006.9 - 0.0 - - - - - - -
21/09:00am 27.0 NNE 12 17 1007.5 - 0.0 - - - - - - -
21/08:30am 24.8 NNE 5 8 1008.4 - 0.0 - - - - - - -
21/08:00am 21.9 NNE 7 10 1008.6 - 0.0 - - - - - - -
21/07:30am 19.7 NNE 8 11 1009.3 - 0.0 - - - - - - -
21/07:00am 16.6 NNE 6 7 1009.5 - 0.0 - - - - - - -
21/06:30am 14.6 NNE 6 8 1009.4 - 0.0 - - - - - - -
21/06:00am 14.2 NNE 7 9 1009.4 - 0.0 - - - - - - -
21/05:30am 15.3 NNE 9 12 1009.3 - 0.0 - - - - - - -
21/05:00am 15.0 NNE 8 11 1009.5 - 0.0 - - - - - - -
21/04:30am 15.3 NNE 9 11 1009.6 - 0.0 - - - - - - -
21/04:00am 15.4 NE 7 9 1010.0 - 0.0 - - - - - - -
21/03:30am 13.5 NE 5 7 1010.3 - 0.0 - - - - - - -
21/03:00am 14.2 NNE 5 7 1010.7 - 0.0 - - - - - - -
21/02:30am 15.6 N 4 4 1010.9 - 0.0 - - - - - - -
21/02:00am 17.1 N 5 8 1011.2 - 0.0 - - - - - - -
21/01:30am 18.1 N 7 9 1011.4 - 0.0 - - - - - - -
21/01:00am 19.6 N 9 14 1011.5 - 0.0 - - - - - - -
21/12:30am 20.5 N 12 16 1010.9 - 0.0 - - - - - - -
21/12:00am 18.6 N 10 15 1010.6 - 0.0 - - - - - - -
 
Date/Time
WST
Temp

°C
Wind Pressure Rain
since 9am
mm
Weather Cloud Vis
km
Sea
Height
m
Swell
Dir
 
Speed
knots
Gust
knots
hPa Trend Height
m
Period
s
Dir
20/11:30pm 18.3 NNE 10 15 1009.3 - 0.0 - - - - - - -
20/11:00pm 17.5 NNE 9 13 1009.7 - 0.0 - - - - - - -
20/10:30pm 17.3 NNE 10 13 1010.2 - 0.0 - - - - - - -
20/10:00pm 15.9 NE 9 11 1010.8 - 0.0 - - - - - - -
20/09:30pm 15.0 NNE 9 10 1011.4 - 0.0 - - - - - - -
20/09:00pm 14.9 NNE 8 10 1011.7 - 0.0 - - - - - - -
20/08:30pm 14.9 NE 8 11 1012.1 - 0.0 - - - - - - -
20/08:00pm 14.7 NE 8 9 1012.2 - 0.0 - - - - - - -
20/07:30pm 15.7 ENE 8 9 1012.2 - 0.0 - - - - - - -
20/07:00pm 16.9 ENE 7 10 1012.1 - 0.0 - - - - - - -
20/06:30pm 18.9 ENE 5 8 1011.8 - 0.0 - - - - - - -
20/06:00pm 19.6 E 6 8 1011.8 - 0.0 - - - - - - -
20/05:43pm 19.7 ESE 6 10 1011.7 - 0.0 - - - - - - -
20/05:30pm 24.7 NE 6 10 1011.6 - 0.0 - - - - - - -
20/05:00pm 27.8 NNE 9 13 1011.7 - 0.0 - - - - - - -
20/04:30pm 28.6 N 13 20 1011.9 - 0.0 - - - - - - -
20/04:00pm 29.1 N 12 19 1012.1 - 0.0 - - - - - - -
20/03:30pm 29.2 N 15 24 1012.4 - 0.0 - - - - - - -
20/03:00pm 28.2 NNE 13 21 1012.6 - 0.0 - - - - - - -
20/02:30pm 29.2 NE 14 20 1013.0 - 0.0 - - - - - - -
20/02:00pm 27.8 NNE 13 21 1013.4 - 0.0 - - - - - - -
20/01:30pm 26.6 NE 12 20 1014.0 - 0.0 - - - - - - -
20/01:00pm 25.9 NNE 14 19 1014.8 - 0.0 - - - - - - -
20/12:30pm 24.9 NNE 13 20 1015.4 - 0.0 - - - - - - -
20/12:00pm 25.5 NNE 14 19 1016.0 - 0.0 - - - - - - -
20/11:30am 23.6 NNE 13 20 1016.6 - 0.0 - - - - - - -
20/11:00am 22.2 NNE 14 22 1017.3 - 0.0 - - - - - - -
20/10:30am 21.7 NNE 12 18 1018.1 - 0.0 - - - - - - -
20/10:00am 22.1 NNE 12 19 1018.7 - 0.0 - - - - - - -
20/09:30am 20.2 NNE 12 17 1019.3 - 0.0 - - - - - - -
20/09:00am 17.7 NE 12 17 1019.8 - 0.2 Recent precip. - - - - - -
20/08:30am 15.8 NE 12 16 1020.3 - 0.2 - - - - - - -
20/08:00am 13.9 NE 10 14 1020.7 - 0.0 - - - - - - -
20/07:30am 12.1 NE 9 13 1021.0 - 0.0 - - - - - - -
20/07:00am 9.8 NE 7 9 1021.3 - 0.0 - - - - - - -
20/06:30am 8.7 NE 10 11 1021.0 - 0.0 - - - - - - -
20/06:00am 8.4 NE 10 12 1021.0 - 0.0 - - - - - - -
20/05:30am 8.4 NE 8 9 1021.3 - 0.0 - - - - - - -
20/05:00am 8.4 NE 6 7 1021.5 - 0.0 - - - - - - -
20/04:30am 9.1 NE 5 6 1021.5 - 0.0 - - - - - - -
20/04:00am 9.1 NNE 5 6 1021.4 - 0.0 - - - - - - -
20/03:30am 8.9 NNE 5 6 1021.4 - 0.0 - - - - - - -
20/03:00am 9.2 NNE 6 8 1021.4 - 0.0 - - - - - - -
20/02:30am 9.3 NNE 7 8 1021.5 - 0.0 - - - - - - -
20/02:00am 9.1 NNE 5 7 1021.6 - 0.0 - - - - - - -
20/01:30am 8.9 NE 5 7 1021.8 - 0.0 - - - - - - -
20/01:00am 9.0 NE 6 7 1022.0 - 0.0 - - - - - - -
20/12:30am 6.7 NE 5 7 1022.3 - 0.0 - - - - - - -
20/12:00am 6.6 NE 5 6 1022.5 - 0.0 - - - - - - -
 
Date/Time
WST
Temp

°C
Wind Pressure Rain
since 9am
mm
Weather Cloud Vis
km
Sea
Height
m
Swell
Dir
 
Speed
knots
Gust
knots
hPa Trend Height
m
Period
s
Dir
19/11:30pm 6.7 NE 5 6 1022.6 - 0.0 - - - - - - -
19/11:00pm 7.5 NE 4 5 1022.9 - 0.0 - - - - - - -
19/10:30pm 7.7 NE 4 5 1023.0 - 0.0 - - - - - - -
19/10:00pm 8.2 ENE 5 5 1023.3 - 0.0 - - - - - - -
19/09:30pm 8.7 ENE 5 5 1023.5 - 0.0 - - - - - - -
19/09:00pm 9.2 ENE 4 4 1023.6 - 0.0 - - - - - - -
19/08:30pm 10.1 ENE 4 5 1023.3 - 0.0 - - - - - - -
19/08:00pm 10.9 ENE 3 4 1023.2 - 0.0 - - - - - - -
19/07:30pm 12.5 E 4 6 1023.1 - 0.0 - - - - - - -
19/07:00pm 12.6 E 5 7 1022.6 - 0.0 - - - - - - -
19/06:30pm 13.0 ESE 5 8 1022.2 - 0.0 - - - - - - -
19/06:00pm 13.2 ESE 5 8 1022.1 - 0.0 - - - - - - -
19/05:30pm 14.1 ESE 6 9 1021.8 - 0.0 - - - - - - -
19/05:00pm 14.9 SE 7 10 1021.6 - 0.0 - - - - - - -
19/04:30pm 15.4 SSE 8 11 1021.6 - 0.0 - - - - - - -
19/04:00pm 15.7 SSE 8 11 1021.5 - 0.0 - - - - - - -
19/03:30pm 15.9 SSE 10 12 1021.1 - 0.0 - - - - - - -
19/03:00pm 16.6 S 10 13 1021.1 - 0.0 - - - - - - -
19/02:30pm 16.5 S 10 13 1021.1 - 0.0 - - - - - - -
19/02:00pm 17.4 S 10 14 1021.0 - 0.0 - - - - - - -
19/01:30pm 16.6 S 11 14 1021.0 - 0.0 - - - - - - -
19/01:00pm 16.8 S 10 13 1021.1 - 0.0 - - - - - - -
19/12:30pm 17.5 SSW 10 14 1021.4 - 0.0 - - - - - - -
19/12:00pm 17.1 SW 8 11 1021.6 - 0.0 - - - - - - -
19/11:30am 16.6 SW 9 13 1021.8 - 0.0 - - - - - - -
19/11:00am 16.2 SW 10 13 1022.0 - 0.0 - - - - - - -
19/10:30am 16.4 SW 11 14 1021.9 - 0.0 - - - - - - -
19/10:00am 15.9 SW 11 15 1021.8 - 0.0 - - - - - - -
19/09:30am 15.4 SW 10 14 1021.7 - 0.0 - - - - - - -
19/09:00am 15.2 WSW 9 12 1021.5 - 0.2 - - - - - - -
19/08:30am 14.9 WSW 6 10 1021.7 - 0.2 - - - - - - -
19/08:00am 14.2 WNW 4 7 1021.3 - 0.2 - - - - - - -
19/07:30am 13.6 WNW 4 7 1021.2 - 0.2 - - - - - - -
19/07:00am 13.1 WSW 8 13 1020.9 - 0.2 - - - - - - -
19/06:30am 12.5 SW 9 14 1020.7 - 0.2 - - - - - - -

Other Formats:

Comma delimited format used in spreadsheet applications
http://www.bom.gov.au/fwo/IDW60701/IDW60701.95635.axf

JavaScript Object Notation format (JSON) in row-major order
http://www.bom.gov.au/fwo/IDW60701/IDW60701.95635.json